createdAt,value
2018-09-11T00:00:19.092Z,15.80
2018-09-11T00:02:48.127Z,15.70
2018-09-11T00:05:17.287Z,15.70
2018-09-11T00:07:46.429Z,15.70
2018-09-11T00:10:16.175Z,15.70
2018-09-11T00:12:45.280Z,15.70
2018-09-11T00:15:14.372Z,15.60
2018-09-11T00:17:43.492Z,15.60
2018-09-11T00:20:12.576Z,15.60
2018-09-11T00:22:41.681Z,15.60
2018-09-11T00:25:10.924Z,15.50
2018-09-11T00:27:40.623Z,15.50
2018-09-11T00:30:09.744Z,15.40
2018-09-11T00:32:38.806Z,15.40
2018-09-11T00:35:08.609Z,15.40
2018-09-11T00:37:37.638Z,15.60
2018-09-11T00:40:06.877Z,15.50
2018-09-11T00:42:36.076Z,15.60
2018-09-11T00:45:05.284Z,15.60
2018-09-11T00:47:34.423Z,15.60
2018-09-11T00:50:03.550Z,15.60
2018-09-11T00:52:32.633Z,15.50
2018-09-11T00:55:01.698Z,15.40
2018-09-11T00:57:30.872Z,15.40
2018-09-11T00:59:59.973Z,15.30
2018-09-11T01:02:29.134Z,15.30
2018-09-11T01:04:58.193Z,15.30
2018-09-11T01:07:27.270Z,15.20
2018-09-11T01:09:56.316Z,15.20
2018-09-11T01:12:25.427Z,15.10
2018-09-11T01:14:54.499Z,15.00
2018-09-11T01:17:23.581Z,15.00
2018-09-11T01:19:52.792Z,15.00
2018-09-11T01:22:21.839Z,14.90
2018-09-11T01:24:50.967Z,14.90
2018-09-11T01:27:20.852Z,14.80
2018-09-11T01:29:50.051Z,14.80
2018-09-11T01:32:19.188Z,14.80
2018-09-11T01:34:48.292Z,14.80
2018-09-11T01:37:17.344Z,14.80
2018-09-11T01:39:46.480Z,14.70
2018-09-11T01:42:15.531Z,14.70
2018-09-11T01:44:44.676Z,14.70
2018-09-11T01:49:40.460Z,14.80
2018-09-11T01:52:09.603Z,14.80
2018-09-11T01:54:38.790Z,14.80
2018-09-11T01:57:07.828Z,14.80
2018-09-11T01:59:36.959Z,14.70
2018-09-11T02:02:06.160Z,14.60
2018-09-11T02:04:35.333Z,14.60
2018-09-11T02:07:04.437Z,14.60
2018-09-11T02:09:33.490Z,14.50
2018-09-11T02:12:02.718Z,14.50
2018-09-11T02:14:32.370Z,14.50
2018-09-11T02:17:01.501Z,14.50
2018-09-11T02:19:30.616Z,14.50
2018-09-11T02:21:59.736Z,14.50
2018-09-11T02:24:28.815Z,14.50
2018-09-11T02:26:58.515Z,14.50
2018-09-11T02:29:27.589Z,14.40
2018-09-11T02:31:56.728Z,14.50
2018-09-11T02:34:25.768Z,14.50
2018-09-11T02:36:54.863Z,14.40
2018-09-11T02:39:24.726Z,14.30
2018-09-11T02:41:53.827Z,14.30
2018-09-11T02:44:22.884Z,14.30
2018-09-11T02:46:52.049Z,14.30
2018-09-11T02:49:22.098Z,14.30
2018-09-11T02:51:51.268Z,14.30
2018-09-11T02:54:20.352Z,14.20
2018-09-11T02:56:49.523Z,14.30
2018-09-11T02:59:18.591Z,14.20
2018-09-11T03:01:47.638Z,14.20
2018-09-11T03:04:16.697Z,14.20
2018-09-11T03:06:45.814Z,14.20
2018-09-11T03:09:15.417Z,14.30
2018-09-11T03:11:44.596Z,14.20
2018-09-11T03:14:14.440Z,14.10
2018-09-11T03:16:43.637Z,14.00
2018-09-11T03:19:13.292Z,14.00
2018-09-11T03:21:42.362Z,14.00
2018-09-11T03:24:11.521Z,14.00
2018-09-11T03:26:41.283Z,14.00
2018-09-11T03:29:10.460Z,14.00
2018-09-11T03:31:39.589Z,13.90
2018-09-11T03:34:08.736Z,13.80
2018-09-11T03:36:38.549Z,13.80
2018-09-11T03:39:08.875Z,13.80
2018-09-11T03:41:38.308Z,13.70
2018-09-11T03:44:07.447Z,13.70
2018-09-11T03:46:37.309Z,13.70
2018-09-11T03:49:07.136Z,13.60
2018-09-11T03:51:36.174Z,13.60
2018-09-11T03:54:05.290Z,13.50
2018-09-11T03:56:34.395Z,13.40
2018-09-11T03:59:03.513Z,13.40
2018-09-11T04:01:32.689Z,13.50
2018-09-11T04:04:01.868Z,13.50
2018-09-11T04:06:31.737Z,13.50
2018-09-11T04:09:01.307Z,13.50
2018-09-11T04:11:30.437Z,13.50
2018-09-11T04:13:59.532Z,13.40
2018-09-11T04:16:28.644Z,13.40
2018-09-11T04:18:57.720Z,13.40
2018-09-11T04:21:26.777Z,13.40
2018-09-11T04:23:55.868Z,13.40
2018-09-11T04:26:25.120Z,13.40
2018-09-11T04:28:54.243Z,13.40
2018-09-11T04:31:23.448Z,13.40
2018-09-11T04:33:52.682Z,13.40
2018-09-11T04:36:21.776Z,13.40
2018-09-11T04:38:50.895Z,13.50
2018-09-11T04:41:20.115Z,13.50
2018-09-11T04:43:49.174Z,13.50
2018-09-11T04:46:18.270Z,13.50
2018-09-11T04:48:47.864Z,13.50
2018-09-11T04:51:16.966Z,13.40
2018-09-11T04:53:46.027Z,13.40
2018-09-11T04:56:15.170Z,13.40
2018-09-11T04:58:44.185Z,13.50
2018-09-11T05:01:13.272Z,13.60
2018-09-11T05:03:42.424Z,13.60
2018-09-11T05:06:11.479Z,13.60
2018-09-11T05:08:40.640Z,13.60
2018-09-11T05:11:09.786Z,13.60
2018-09-11T05:13:38.904Z,13.70
2018-09-11T05:16:08.021Z,13.60
2018-09-11T05:18:37.133Z,13.70
2018-09-11T05:21:06.224Z,13.70
2018-09-11T05:23:35.289Z,13.70
2018-09-11T05:26:04.348Z,13.70
2018-09-11T05:28:33.519Z,13.80
2018-09-11T05:31:02.693Z,13.80
2018-09-11T05:33:31.866Z,13.80
2018-09-11T05:36:01.618Z,13.80
2018-09-11T05:38:30.709Z,13.80
2018-09-11T05:40:59.792Z,13.90
2018-09-11T05:43:28.888Z,13.90
2018-09-11T05:45:57.917Z,13.90
2018-09-11T05:48:27.136Z,14.00
2018-09-11T05:50:56.334Z,14.40
2018-09-11T05:53:25.457Z,15.10
2018-09-11T05:55:54.645Z,16.00
2018-09-11T05:58:23.740Z,16.80
2018-09-11T06:00:53.054Z,17.70
2018-09-11T06:03:22.181Z,18.60
2018-09-11T06:05:51.380Z,19.20
2018-09-11T06:08:20.631Z,19.80
2018-09-11T06:10:49.736Z,20.40
2018-09-11T06:13:18.871Z,20.60
2018-09-11T06:15:47.960Z,21.00
2018-09-11T06:18:17.288Z,21.50
2018-09-11T06:20:47.114Z,22.20
2018-09-11T06:23:16.192Z,22.90
2018-09-11T06:25:45.524Z,23.60
2018-09-11T06:28:16.138Z,23.70
2018-09-11T06:30:45.196Z,23.80
2018-09-11T06:33:15.088Z,24.00
2018-09-11T06:35:44.197Z,24.20
2018-09-11T06:38:13.702Z,24.30
2018-09-11T06:40:42.827Z,24.80
2018-09-11T06:43:12.251Z,25.20
2018-09-11T06:45:41.472Z,26.00
2018-09-11T06:48:11.374Z,26.50
2018-09-11T06:50:40.511Z,26.90
2018-09-11T06:53:09.611Z,27.30
2018-09-11T06:55:38.648Z,27.70
2018-09-11T06:58:07.952Z,28.10
2018-09-11T07:00:37.208Z,28.60
2018-09-11T07:03:06.738Z,28.70
2018-09-11T07:05:35.924Z,28.60
2018-09-11T07:08:05.096Z,28.90
2018-09-11T07:10:34.280Z,28.90
2018-09-11T07:13:04.003Z,29.00
2018-09-11T07:15:33.095Z,29.00
2018-09-11T07:18:02.233Z,29.60
2018-09-11T07:20:31.500Z,29.50
2018-09-11T07:23:00.568Z,29.80
2018-09-11T07:25:29.804Z,29.50
2018-09-11T07:27:58.955Z,28.80
2018-09-11T07:30:28.196Z,28.90
2018-09-11T07:32:57.250Z,29.20
2018-09-11T07:35:26.431Z,29.00
2018-09-11T07:37:56.316Z,28.50
2018-09-11T07:40:25.404Z,28.20
2018-09-11T07:42:54.461Z,27.90
2018-09-11T07:45:23.555Z,27.60
2018-09-11T07:47:52.708Z,27.50
2018-09-11T07:50:21.801Z,27.50
2018-09-11T07:52:51.012Z,27.30
2018-09-11T07:55:20.130Z,27.00
2018-09-11T07:57:49.354Z,27.10
2018-09-11T08:00:18.412Z,27.20
2018-09-11T08:02:47.511Z,27.70
2018-09-11T08:05:16.638Z,28.10
2018-09-11T08:07:45.777Z,28.50
2018-09-11T08:10:14.965Z,29.00
2018-09-11T08:12:44.188Z,29.30
2018-09-11T08:15:13.274Z,29.80
2018-09-11T08:17:42.480Z,30.20
2018-09-11T08:20:11.553Z,30.20
2018-09-11T08:22:40.681Z,30.00
2018-09-11T08:25:09.841Z,29.60
2018-09-11T08:27:39.542Z,29.20
2018-09-11T08:30:09.069Z,28.80
2018-09-11T08:32:38.177Z,28.80
2018-09-11T08:35:07.266Z,29.00
2018-09-11T08:37:36.369Z,28.70
2018-09-11T08:40:05.933Z,29.00
2018-09-11T08:42:35.373Z,29.40
2018-09-11T08:45:04.603Z,30.20
2018-09-11T08:47:33.739Z,30.80
2018-09-11T08:50:02.846Z,30.80
2018-09-11T08:52:32.064Z,30.70
2018-09-11T08:55:01.073Z,30.70
2018-09-11T08:57:30.250Z,30.70
2018-09-11T09:00:00.498Z,30.60
2018-09-11T09:02:29.636Z,30.10
2018-09-11T09:04:58.774Z,30.30
2018-09-11T09:07:27.843Z,30.20
2018-09-11T09:09:57.834Z,30.50
2018-09-11T09:12:26.986Z,30.50
2018-09-11T09:14:56.065Z,30.70
2018-09-11T09:17:25.223Z,31.20
2018-09-11T09:19:54.684Z,31.60
2018-09-11T09:22:24.459Z,31.20
2018-09-11T09:24:54.002Z,31.50
2018-09-11T09:27:23.169Z,31.50
2018-09-11T09:29:52.234Z,31.90
2018-09-11T09:32:21.412Z,32.30
2018-09-11T09:34:50.509Z,32.80
2018-09-11T09:38:49.147Z,32.50
2018-09-11T09:41:18.278Z,33.20
2018-09-11T09:43:47.351Z,32.80
2018-09-11T09:46:16.482Z,33.00
2018-09-11T09:48:45.588Z,33.70
2018-09-11T09:51:14.704Z,33.60
2018-09-11T09:53:44.359Z,33.40
2018-09-11T09:56:13.438Z,33.00
2018-09-11T09:58:42.484Z,32.60
2018-09-11T10:01:16.798Z,32.80
2018-09-11T10:03:45.966Z,32.60
2018-09-11T10:06:15.024Z,32.20
2018-09-11T10:08:44.793Z,32.50
2018-09-11T10:11:13.882Z,32.80
2018-09-11T10:13:43.073Z,33.00
2018-09-11T10:16:12.104Z,33.60
2018-09-11T10:18:41.153Z,34.20
2018-09-11T10:21:10.320Z,34.90
2018-09-11T10:23:39.525Z,35.20
2018-09-11T10:26:08.609Z,36.00
2018-09-11T10:28:37.692Z,36.00
2018-09-11T10:31:06.804Z,36.40
2018-09-11T10:33:35.899Z,35.80
2018-09-11T10:36:05.100Z,35.50
2018-09-11T10:38:34.904Z,35.70
2018-09-11T10:41:04.028Z,35.50
2018-09-11T10:43:33.159Z,35.10
2018-09-11T10:46:02.886Z,35.00
2018-09-11T10:48:32.105Z,34.60
2018-09-11T10:51:01.382Z,34.60
2018-09-11T10:53:30.487Z,34.80
2018-09-11T10:55:59.545Z,34.50
2018-09-11T10:58:28.705Z,34.20
2018-09-11T11:00:57.796Z,34.20
2018-09-11T11:03:27.108Z,34.50
2018-09-11T11:05:56.904Z,34.30
2018-09-11T11:08:25.956Z,33.90
2018-09-11T11:10:55.720Z,34.00
2018-09-11T11:13:24.804Z,34.00
2018-09-11T11:15:54.404Z,34.10
2018-09-11T11:18:23.485Z,34.20
2018-09-11T11:20:52.538Z,34.30
2018-09-11T11:23:21.670Z,34.60
2018-09-11T11:25:50.768Z,35.40
2018-09-11T11:28:19.865Z,35.40
2018-09-11T11:30:49.029Z,35.00
2018-09-11T11:33:18.071Z,34.70
2018-09-11T11:35:47.232Z,34.70
2018-09-11T11:38:16.356Z,34.70
2018-09-11T11:40:45.923Z,34.40
2018-09-11T11:43:15.213Z,34.30
2018-09-11T11:45:44.307Z,34.00
2018-09-11T11:48:13.428Z,33.70
2018-09-11T11:50:42.523Z,33.60
2018-09-11T11:53:11.546Z,33.70
2018-09-11T11:55:40.761Z,33.90
2018-09-11T11:58:09.833Z,33.70
2018-09-11T12:00:38.981Z,34.00
2018-09-11T12:03:08.440Z,34.10
2018-09-11T12:05:37.927Z,34.30
2018-09-11T12:08:07.011Z,34.50
2018-09-11T12:10:36.068Z,34.60
2018-09-11T12:13:05.233Z,34.80
2018-09-11T12:15:34.506Z,34.60
2018-09-11T12:18:03.722Z,34.50
2018-09-11T12:20:33.667Z,34.70
2018-09-11T12:23:02.803Z,35.10
2018-09-11T12:25:32.000Z,35.00
2018-09-11T12:28:00.977Z,35.10
2018-09-11T12:30:30.107Z,34.80
2018-09-11T12:32:59.788Z,35.10
2018-09-11T12:35:29.046Z,35.10
2018-09-11T12:37:58.069Z,35.20
2018-09-11T12:40:27.181Z,34.90
2018-09-11T12:42:56.229Z,34.90
2018-09-11T12:45:25.424Z,35.00
2018-09-11T12:47:55.437Z,34.90
2018-09-11T12:50:24.455Z,35.20
2018-09-11T12:52:53.545Z,35.50
2018-09-11T12:55:22.651Z,35.70
2018-09-11T12:57:51.799Z,35.50
2018-09-11T13:00:20.940Z,35.60
2018-09-11T13:02:50.024Z,35.40
2018-09-11T13:05:19.088Z,35.50
2018-09-11T13:07:48.215Z,35.30
2018-09-11T13:10:17.316Z,35.10
2018-09-11T13:12:46.439Z,34.90
2018-09-11T13:15:15.669Z,34.90
2018-09-11T13:17:44.745Z,35.20
2018-09-11T13:20:13.822Z,35.20
2018-09-11T13:22:42.993Z,35.00
2018-09-11T13:25:12.118Z,35.30
2018-09-11T13:27:41.253Z,35.60
2018-09-11T13:30:10.418Z,36.00
2018-09-11T13:32:40.231Z,36.20
2018-09-11T13:35:09.428Z,36.30
2018-09-11T13:37:38.546Z,36.40
2018-09-11T13:40:07.629Z,36.00
2018-09-11T13:42:36.843Z,35.80
2018-09-11T13:45:06.166Z,35.40
2018-09-11T13:47:35.335Z,35.40
2018-09-11T13:50:04.781Z,34.90
2018-09-11T13:52:33.972Z,34.70
2018-09-11T13:55:03.227Z,34.60
2018-09-11T13:57:32.535Z,34.70
2018-09-11T14:00:01.605Z,34.60
2018-09-11T14:02:30.801Z,34.30
2018-09-11T14:04:59.855Z,34.40
2018-09-11T14:07:29.700Z,34.40
2018-09-11T14:09:58.783Z,34.70
2018-09-11T14:12:27.900Z,34.60
2018-09-11T14:14:56.999Z,34.70
2018-09-11T14:17:26.219Z,35.00
2018-09-11T14:19:55.356Z,34.90
2018-09-11T14:22:24.468Z,35.10
2018-09-11T14:24:53.526Z,35.40
2018-09-11T14:27:22.696Z,35.60
2018-09-11T14:29:53.166Z,35.30
2018-09-11T14:32:22.306Z,35.30
2018-09-11T14:34:51.375Z,35.30
2018-09-11T14:37:20.576Z,35.40
2018-09-11T14:39:49.724Z,35.40
2018-09-11T14:42:19.437Z,35.20
2018-09-11T14:44:48.508Z,34.80
2018-09-11T14:47:17.641Z,35.00
2018-09-11T14:49:46.929Z,35.20
2018-09-11T14:52:16.135Z,35.00
2018-09-11T14:54:45.329Z,35.00
2018-09-11T14:57:14.937Z,35.20
2018-09-11T14:59:44.002Z,35.30
2018-09-11T15:02:13.106Z,35.20
2018-09-11T15:04:42.216Z,35.00
2018-09-11T15:07:11.376Z,34.80
2018-09-11T15:09:40.434Z,34.60
2018-09-11T15:12:09.603Z,34.50
2018-09-11T15:14:38.809Z,34.30
2018-09-11T15:17:07.942Z,34.10
2018-09-11T15:19:37.006Z,34.10
2018-09-11T15:22:06.106Z,34.10
2018-09-11T15:24:35.204Z,34.30
2018-09-11T15:27:04.409Z,34.50
2018-09-11T15:29:34.107Z,34.60
2018-09-11T15:32:03.365Z,34.60
2018-09-11T15:34:32.470Z,34.90
2018-09-11T15:37:01.640Z,35.30
2018-09-11T15:39:30.853Z,35.50
2018-09-11T15:42:00.771Z,35.60
2018-09-11T15:44:30.057Z,35.50
2018-09-11T15:46:59.274Z,35.30
2018-09-11T15:49:28.657Z,35.00
2018-09-11T15:51:57.861Z,34.90
2018-09-11T15:54:26.969Z,34.80
2018-09-11T15:56:56.085Z,34.70
2018-09-11T15:59:25.187Z,34.50
2018-09-11T16:01:54.454Z,34.40
2018-09-11T16:04:24.167Z,34.60
2018-09-11T16:06:53.279Z,34.70
2018-09-11T16:09:22.476Z,34.80
2018-09-11T16:11:51.544Z,34.70
2018-09-11T16:14:20.796Z,34.40
2018-09-11T16:16:49.930Z,33.90
2018-09-11T16:19:19.060Z,33.40
2018-09-11T16:21:48.188Z,32.90
2018-09-11T16:24:18.026Z,32.30
2018-09-11T16:26:47.045Z,31.70
2018-09-11T16:29:16.168Z,31.20
2018-09-11T16:31:45.209Z,30.70
2018-09-11T16:34:14.327Z,30.30
2018-09-11T16:36:43.944Z,29.80
2018-09-11T16:39:13.501Z,29.50
2018-09-11T16:41:42.784Z,29.20
2018-09-11T16:44:11.883Z,28.90
2018-09-11T16:46:41.035Z,28.80
2018-09-11T16:49:10.297Z,28.50
2018-09-11T16:51:40.247Z,28.30
2018-09-11T16:54:09.392Z,28.20
2018-09-11T16:56:39.205Z,28.00
2018-09-11T16:59:08.556Z,28.00
2018-09-11T17:01:37.708Z,27.80
2018-09-11T17:04:06.797Z,27.70
2018-09-11T17:06:35.865Z,27.60
2018-09-11T17:09:07.702Z,27.50
2018-09-11T17:11:36.756Z,27.40
2018-09-11T17:14:06.158Z,27.30
2018-09-11T17:16:35.248Z,27.10
2018-09-11T17:19:04.429Z,27.10
2018-09-11T17:21:33.492Z,26.90
2018-09-11T17:24:02.566Z,26.60
2018-09-11T17:26:31.705Z,26.40
2018-09-11T17:29:00.799Z,26.20
2018-09-11T17:31:29.953Z,26.00
2018-09-11T17:33:59.598Z,25.70
2018-09-11T17:36:28.692Z,25.40
2018-09-11T17:38:57.816Z,25.20
2018-09-11T17:41:26.954Z,25.00
2018-09-11T17:43:56.051Z,24.80
2018-09-11T17:46:25.150Z,24.60
2018-09-11T17:48:54.244Z,24.40
2018-09-11T17:51:23.322Z,24.20
2018-09-11T17:53:52.502Z,24.10
2018-09-11T17:56:21.589Z,24.00
2018-09-11T17:58:50.937Z,23.80
2018-09-11T18:01:20.755Z,23.60
2018-09-11T18:03:49.916Z,23.50
2018-09-11T18:06:19.033Z,23.30
2018-09-11T18:08:48.184Z,23.20
2018-09-11T18:11:17.325Z,23.00
2018-09-11T18:13:46.377Z,22.90
2018-09-11T18:16:15.444Z,22.90
2018-09-11T18:18:45.152Z,22.80
2018-09-11T18:21:14.255Z,22.70
2018-09-11T18:23:43.428Z,22.60
2018-09-11T18:26:12.564Z,22.50
2018-09-11T18:28:41.626Z,22.50
2018-09-11T18:31:10.734Z,22.40
2018-09-11T18:33:39.869Z,22.20
2018-09-11T18:36:08.973Z,22.00
2018-09-11T18:38:38.123Z,21.90
2018-09-11T18:41:07.874Z,21.70
2018-09-11T18:43:36.974Z,21.60
2018-09-11T18:46:06.115Z,21.40
2018-09-11T18:48:35.219Z,21.30
2018-09-11T18:51:04.341Z,21.20
2018-09-11T18:53:33.421Z,21.10
2018-09-11T18:56:02.525Z,20.90
2018-09-11T18:58:31.589Z,20.90
2018-09-11T19:01:00.874Z,20.80
2018-09-11T19:03:29.398Z,20.60
2018-09-11T19:06:04.248Z,20.60
2018-09-11T19:08:38.955Z,20.50
2018-09-11T19:11:08.118Z,20.40
2018-09-11T19:13:37.119Z,20.30
2018-09-11T19:16:06.293Z,20.30
2018-09-11T19:18:35.436Z,20.20
2018-09-11T19:21:04.689Z,20.20
2018-09-11T19:23:33.828Z,20.10
2018-09-11T19:26:03.171Z,20.00
2018-09-11T19:28:32.286Z,19.90
2018-09-11T19:31:01.439Z,19.80
2018-09-11T19:33:30.560Z,19.70
2018-09-11T19:35:59.704Z,19.70
2018-09-11T19:38:28.844Z,19.60
2018-09-11T19:40:58.669Z,19.60
2018-09-11T19:43:28.352Z,19.40
2018-09-11T19:45:57.484Z,19.30
2018-09-11T19:48:26.700Z,19.30
2018-09-11T19:50:56.517Z,19.30
2018-09-11T19:53:25.649Z,19.20
2018-09-11T19:55:54.716Z,19.20
2018-09-11T19:58:23.775Z,19.30
2018-09-11T20:00:52.888Z,19.30
2018-09-11T20:03:22.011Z,19.20
2018-09-11T20:05:51.202Z,19.20
2018-09-11T20:08:20.349Z,19.20
2018-09-11T20:10:49.536Z,19.20
2018-09-11T20:13:19.297Z,19.10
2018-09-11T20:15:48.483Z,19.00
2018-09-11T20:18:18.293Z,18.80
2018-09-11T20:20:47.386Z,18.60
2018-09-11T20:23:16.540Z,18.50
2018-09-11T20:25:45.593Z,18.50
2018-09-11T20:28:14.672Z,18.50
2018-09-11T20:30:43.780Z,18.40
2018-09-11T20:33:12.887Z,18.40
2018-09-11T20:35:41.944Z,18.30
2018-09-11T20:38:11.288Z,18.30
2018-09-11T20:40:40.416Z,18.20
2018-09-11T20:43:09.570Z,18.20
2018-09-11T20:45:38.766Z,18.10
2018-09-11T20:48:08.013Z,18.10
2018-09-11T20:50:37.135Z,18.10
2018-09-11T20:53:06.211Z,17.90
2018-09-11T20:55:35.260Z,17.90
2018-09-11T20:58:04.325Z,17.80
2018-09-11T21:00:33.507Z,17.70
2018-09-11T21:03:02.675Z,17.60
2018-09-11T21:05:31.801Z,17.60
2018-09-11T21:08:01.232Z,17.50
2018-09-11T21:10:30.321Z,17.40
2018-09-11T21:12:59.361Z,17.40
2018-09-11T21:15:28.495Z,17.30
2018-09-11T21:17:57.645Z,17.30
2018-09-11T21:20:26.720Z,17.20
2018-09-11T21:22:55.823Z,17.20
2018-09-11T21:25:24.925Z,17.20
2018-09-11T21:27:54.516Z,17.20
2018-09-11T21:30:23.646Z,17.10
2018-09-11T21:32:52.742Z,17.10
2018-09-11T21:35:21.973Z,17.10
2018-09-11T21:37:51.148Z,17.10
2018-09-11T21:40:20.314Z,17.10
2018-09-11T21:42:49.436Z,17.10
2018-09-11T21:45:18.490Z,17.10
2018-09-11T21:47:47.663Z,17.10
2018-09-11T21:50:16.795Z,17.00
2018-09-11T21:52:45.893Z,17.00
2018-09-11T21:55:15.013Z,17.00
2018-09-11T21:57:44.199Z,17.10
2018-09-11T22:00:13.951Z,17.00
2018-09-11T22:02:43.076Z,17.10
2018-09-11T22:05:12.211Z,17.00
2018-09-11T22:07:41.429Z,17.00
2018-09-11T22:10:11.043Z,16.90
2018-09-11T22:12:40.559Z,16.90
2018-09-11T22:15:11.175Z,16.70
2018-09-11T22:17:40.316Z,16.70
2018-09-11T22:20:09.423Z,16.60
2018-09-11T22:22:38.529Z,16.60
2018-09-11T22:25:07.642Z,16.50
2018-09-11T22:27:36.823Z,16.50
2018-09-11T22:30:06.083Z,16.40
2018-09-11T22:32:35.228Z,16.30
2018-09-11T22:35:06.412Z,16.20
2018-09-11T22:37:35.737Z,16.30
2018-09-11T22:40:04.875Z,16.20
2018-09-11T22:42:34.096Z,16.10
2018-09-11T22:45:03.330Z,16.10
2018-09-11T22:47:33.086Z,16.10
2018-09-11T22:50:02.222Z,16.00
2018-09-11T22:52:31.257Z,16.00
2018-09-11T22:55:00.382Z,15.90
2018-09-11T22:57:29.465Z,15.90
2018-09-11T22:59:58.672Z,15.90
2018-09-11T23:02:28.193Z,15.80
2018-09-11T23:04:57.365Z,15.80
2018-09-11T23:07:26.519Z,15.80
2018-09-11T23:09:55.606Z,15.80
2018-09-11T23:12:24.705Z,15.80
2018-09-11T23:14:53.884Z,15.80
2018-09-11T23:17:22.962Z,15.80
2018-09-11T23:19:52.141Z,15.70
2018-09-11T23:22:21.360Z,15.60
2018-09-11T23:24:50.465Z,15.60
2018-09-11T23:27:20.275Z,15.60
2018-09-11T23:29:49.321Z,15.60
2018-09-11T23:32:18.397Z,15.50
2018-09-11T23:34:47.505Z,15.50
2018-09-11T23:37:16.557Z,15.40
2018-09-11T23:39:46.386Z,15.40
2018-09-11T23:42:15.468Z,15.30
2018-09-11T23:44:44.720Z,15.30
2018-09-11T23:47:13.769Z,15.20
2018-09-11T23:49:42.933Z,15.10
2018-09-11T23:52:12.189Z,15.10
2018-09-11T23:54:41.253Z,15.10
2018-09-11T23:57:10.348Z,15.00
2018-09-11T23:59:39.484Z,15.00
